Time;durP1;ratioP1;P1;durP2;ratioP2;P2;SDS_P1;SDS_P2;PMS_P1;PMS_P2;Temp;Humidity;BMP_temperature;BMP_pressure;BME280_temperature;BME280_humidity;BME280_pressure;Samples;Min_cycle;Max_cycle;Signal;HPM_P1;HPM_P2
2022/06/13 00:13:05;;;;;;;7.03;3.80;;;;;;;19.27;61.37;100096.09;30978887;28;97365;-71
2022/06/13 00:28:05;;;;;;;9.97;4.57;;;;;;;19.27;62.43;100074.47;30977948;28;97295;-67
2022/06/13 00:43:06;;;;;;;7.20;4.18;;;;;;;19.20;63.05;100008.09;30976627;28;97548;-70
2022/06/13 00:58:07;;;;;;;8.50;4.38;;;;;;;18.60;65.28;99999.81;30997272;28;97281;-68
2022/06/13 01:13:11;;;;;;;4.57;3.77;;;;;;;18.33;66.28;99998.47;30995668;28;97161;-71
2022/06/13 01:28:20;;;;;;;6.40;4.10;;;;;;;17.97;67.02;100005.53;30994636;28;97054;-64
2022/06/13 01:43:54;;;;;;;7.27;4.27;;;;;;;17.61;68.69;99990.94;30992934;28;97477;-68
2022/06/13 01:59:12;;;;;;;9.07;5.90;;;;;;;17.35;70.16;99984.75;30991216;28;97280;-71
2022/06/13 02:14:19;;;;;;;7.50;6.23;;;;;;;17.08;71.28;99995.69;30990201;28;96715;-71
2022/06/13 02:29:48;;;;;;;8.20;7.03;;;;;;;16.86;72.91;99985.25;30988671;28;97738;-64
2022/06/13 02:44:51;;;;;;;8.70;6.73;;;;;;;16.71;73.77;99992.81;30983663;28;96627;-70
2022/06/13 03:00:26;;;;;;;12.90;8.17;;;;;;;16.44;74.59;100011.75;30985423;28;97180;-71
2022/06/13 03:15:33;;;;;;;11.67;8.33;;;;;;;16.41;75.23;99993.34;30982551;28;97315;-68
2022/06/13 03:30:38;;;;;;;8.10;6.53;;;;;;;16.73;75.45;99994.25;30982451;28;96676;-70
2022/06/13 03:45:43;;;;;;;8.37;6.17;;;;;;;17.05;74.49;99988.06;30980832;28;96703;-70
2022/06/13 04:00:57;;;;;;;7.43;5.87;;;;;;;17.35;73.36;100019.75;30975535;28;97427;-66
2022/06/13 04:16:11;;;;;;;8.03;5.47;;;;;;;17.46;72.96;99988.59;30974150;28;96721;-64
2022/06/13 04:31:15;;;;;;;6.97;6.20;;;;;;;17.40;73.00;99925.66;30970738;28;98493;-68
2022/06/13 04:46:25;;;;;;;7.77;5.50;;;;;;;17.40;73.66;99910.34;31016174;28;96770;-68
2022/06/13 05:01:28;;;;;;;9.67;7.37;;;;;;;17.56;73.14;99940.41;31094343;28;96615;-68
2022/06/13 05:16:55;;;;;;;7.83;4.80;;;;;;;17.66;72.59;99945.28;31092455;28;97648;-65
2022/06/13 05:31:56;;;;;;;6.63;4.03;;;;;;;17.52;72.43;99976.91;31091471;28;96631;-68
2022/06/13 05:46:57;;;;;;;4.85;4.35;;;;;;;17.49;73.17;99994.34;31111211;28;97215;-66
2022/06/13 06:01:57;;;;;;;6.75;3.30;;;;;;;17.84;72.83;99960.66;31110111;28;96835;-66
2022/06/13 06:16:57;;;;;;;9.52;4.80;;;;;;;18.04;71.70;99944.28;31110159;28;96797;-71
2022/06/13 06:31:58;;;;;;;8.73;3.22;;;;;;;18.05;71.52;99944.06;31108291;28;96665;-68
2022/06/13 06:46:58;;;;;;;6.18;3.10;;;;;;;18.13;71.72;99951.03;31106609;28;97035;-68
2022/06/13 07:02:00;;;;;;;5.07;3.33;;;;;;;18.17;71.34;99930.66;31105371;28;96580;-69
2022/06/13 07:17:04;;;;;;;5.03;3.40;;;;;;;18.21;71.21;99945.31;31102261;28;96715;-64
2022/06/13 07:32:17;;;;;;;6.33;2.90;;;;;;;18.76;70.63;99947.06;31098659;28;97322;-65
2022/06/13 07:47:20;;;;;;;5.00;3.50;;;;;;;19.64;67.45;99935.66;31088518;28;96832;-64
2022/06/13 08:02:21;;;;;;;12.03;8.00;;;;;;;19.92;65.30;99955.78;30971984;28;96613;-69
2022/06/13 08:17:22;;;;;;;12.07;9.07;;;;;;;19.50;66.39;99959.41;30973008;28;97120;-72
2022/06/13 08:32:23;;;;;;;11.00;9.90;;;;;;;20.10;65.87;99971.00;30973387;28;97657;-73
2022/06/13 08:47:36;;;;;;;12.88;10.68;;;;;;;19.43;65.03;100016.25;30969216;28;96637;-70
2022/06/13 09:03:10;;;;;;;9.40;7.57;;;;;;;18.98;65.40;100057.22;30969330;28;97515;-73
2022/06/13 09:18:16;;;;;;;8.83;7.10;;;;;;;18.45;64.97;100099.16;30985018;28;96705;-69
2022/06/13 09:33:25;;;;;;;8.90;7.00;;;;;;;17.80;67.81;100135.41;30989472;28;97030;-67
2022/06/13 09:48:45;;;;;;;7.87;5.90;;;;;;;17.00;70.26;100146.66;31048051;28;97230;-70
2022/06/13 10:04:04;;;;;;;13.47;6.60;;;;;;;16.95;71.43;100173.38;31027511;28;96728;-69
2022/06/13 10:19:13;;;;;;;8.57;6.17;;;;;;;17.09;71.76;100162.34;31022566;28;97588;-68
2022/06/13 10:34:31;;;;;;;8.53;6.23;;;;;;;17.54;71.02;100161.50;30987248;28;96728;-71
2022/06/13 10:49:39;;;;;;;8.80;6.77;;;;;;;17.63;71.55;100137.78;30978517;28;97082;-69
2022/06/13 11:04:40;;;;;;;9.80;6.30;;;;;;;18.36;70.05;100131.00;30977369;28;96728;-66
2022/06/13 11:34:59;;;;;;;9.70;6.97;;;;;;;19.23;68.71;100100.28;30976793;28;96665;-66
2022/06/13 11:50:00;;;;;;;9.38;6.32;;;;;;;19.88;66.29;100120.31;30976838;28;96744;-69
2022/06/13 12:05:00;;;;;;;9.43;5.38;;;;;;;20.14;64.15;100130.91;30974391;28;96736;-73
2022/06/13 12:20:12;;;;;;;6.85;4.93;;;;;;;20.49;62.81;100125.47;30972141;28;97043;-70
2022/06/13 12:35:36;;;;;;;11.40;4.30;;;;;;;20.46;61.68;100128.63;30971538;28;97424;-68
2022/06/13 12:50:40;;;;;;;7.97;3.80;;;;;;;20.22;60.06;100144.91;30974284;28;97563;-69
2022/06/13 13:05:43;;;;;;;10.73;7.60;;;;;;;19.70;59.34;100121.19;30989194;28;96938;-67
2022/06/13 13:20:54;;;;;;;10.33;4.70;;;;;;;19.58;60.04;100121.16;30991574;28;97049;-67
2022/06/13 13:36:13;;;;;;;8.93;4.00;;;;;;;21.05;58.70;100112.28;30989282;28;96748;-69
2022/06/13 13:51:23;;;;;;;5.20;2.17;;;;;;;22.51;52.25;100114.38;30988328;28;97128;-68
2022/06/13 14:06:43;;;;;;;9.17;3.17;;;;;;;22.64;48.65;100103.16;30967601;28;98637;-67
2022/06/13 14:21:43;;;;;;;6.75;2.25;;;;;;;22.63;46.31;100084.41;30970212;28;98588;-67
2022/06/13 14:36:46;;;;;;;5.77;2.07;;;;;;;22.90;43.74;100079.03;30965186;28;97252;-64
2022/06/13 14:52:18;;;;;;;5.27;1.87;;;;;;;23.01;40.05;100065.56;30972727;28;96830;-64
2022/06/13 15:07:26;;;;;;;4.73;2.27;;;;;;;23.07;37.17;100083.53;30965314;28;97631;-66
2022/06/13 15:22:34;;;;;;;4.17;1.17;;;;;;;22.82;35.80;100103.91;30961392;28;98508;-66
2022/06/13 15:37:46;;;;;;;7.13;1.30;;;;;;;23.21;34.54;100105.72;30969833;28;96901;-70
2022/06/13 15:52:48;;;;;;;3.03;1.30;;;;;;;22.79;32.78;100124.25;31011935;28;97490;-62
2022/06/13 16:07:51;;;;;;;6.80;1.33;;;;;;;22.06;32.42;100128.94;31031834;28;96924;-64
2022/06/13 16:22:56;;;;;;;4.20;1.67;;;;;;;21.26;33.03;100147.91;31038359;28;96838;-65
2022/06/13 16:38:02;;;;;;;3.50;1.50;;;;;;;21.30;33.53;100149.84;31037779;28;97487;-65
2022/06/13 16:53:10;;;;;;;4.57;1.50;;;;;;;21.36;34.36;100156.19;31038136;28;96891;-66
2022/06/13 17:08:15;;;;;;;6.23;1.90;;;;;;;20.93;35.06;100174.59;31009249;28;97101;-63
2022/06/13 17:23:18;;;;;;;5.87;1.23;;;;;;;20.58;36.03;100193.56;30979997;28;97116;-64
2022/06/13 17:38:18;;;;;;;7.93;1.90;;;;;;;20.04;37.11;100218.00;30967272;28;97284;-64
2022/06/13 17:53:19;;;;;;;5.85;1.55;;;;;;;20.03;36.40;100228.00;30987128;28;96923;-64
2022/06/13 18:08:29;;;;;;;3.63;1.67;;;;;;;19.76;36.13;100244.56;30987936;28;97023;-64
2022/06/13 18:23:32;;;;;;;6.37;1.90;;;;;;;19.19;37.33;100266.53;30986493;28;97393;-62
2022/06/13 18:38:32;;;;;;;4.57;2.23;;;;;;;18.75;37.85;100274.63;30986203;28;96744;-68
2022/06/13 18:53:34;;;;;;;2.83;1.43;;;;;;;18.47;39.05;100296.66;30985064;28;116497;-62
2022/06/13 19:08:35;;;;;;;7.73;2.23;;;;;;;18.07;40.21;100318.50;30982070;28;96768;-64
2022/06/13 19:23:35;;;;;;;3.53;1.63;;;;;;;17.85;40.92;100353.00;30983602;28;97448;-62
2022/06/13 19:38:37;;;;;;;9.70;2.03;;;;;;;17.42;42.29;100386.72;30977696;28;97315;-61
2022/06/13 19:53:40;;;;;;;12.13;2.03;;;;;;;17.37;42.93;100394.59;30952127;28;97951;-63
2022/06/13 20:08:41;;;;;;;7.40;2.20;;;;;;;17.25;42.97;100405.19;30854498;28;96815;-63
2022/06/13 20:23:41;;;;;;;6.37;3.03;;;;;;;16.80;43.80;100415.72;30875663;28;96996;-62
2022/06/13 20:38:43;;;;;;;8.48;2.78;;;;;;;16.36;44.70;100429.50;30966459;28;97490;-66
2022/06/13 20:53:44;;;;;;;8.27;2.60;;;;;;;15.76;46.36;100440.00;30965423;28;96777;-65
2022/06/13 21:24:07;;;;;;;6.10;2.43;;;;;;;15.27;48.79;100443.56;30913963;28;97693;-63
2022/06/13 21:39:08;;;;;;;6.83;2.33;;;;;;;15.00;49.84;100444.19;30962326;28;97678;-62
2022/06/13 21:54:12;;;;;;;6.60;2.70;;;;;;;14.60;50.19;100449.16;30991527;28;96781;-63
2022/06/13 22:09:13;;;;;;;4.10;2.07;;;;;;;14.50;51.35;100467.38;30990926;28;96749;-69
2022/06/13 22:24:14;;;;;;;4.43;1.93;;;;;;;14.37;51.61;100470.75;30980008;28;96872;-61
2022/06/13 22:39:14;;;;;;;5.03;2.00;;;;;;;14.27;51.31;100478.25;30989338;28;97167;-61
2022/06/13 22:54:15;;;;;;;5.57;1.67;;;;;;;14.36;51.67;100475.25;30987855;28;97884;-63
2022/06/13 23:09:15;;;;;;;4.75;1.88;;;;;;;14.49;51.31;100490.69;30986179;28;97401;-74
2022/06/13 23:24:15;;;;;;;5.00;1.92;;;;;;;14.13;51.70;100502.19;30984291;28;106463;-72
2022/06/13 23:39:16;;;;;;;6.10;1.90;;;;;;;13.79;52.63;100506.28;30983458;28;97268;-65
2022/06/13 23:54:16;;;;;;;3.45;1.70;;;;;;;13.58;53.84;100506.97;30981603;28;96772;-62
